Time;durP1;ratioP1;P1;durP2;ratioP2;P2;SDS_P1;SDS_P2;PMS_P1;PMS_P2;Temp;Humidity;BMP_temperature;BMP_pressure;BME280_temperature;BME280_humidity;BME280_pressure;Samples;Min_cycle;Max_cycle;Signal;HPM_P1;HPM_P2
2022/01/04 00:01:19;;;;;;;22.35;8.18;;;;;;;8.03;100.00;100222.75;5156283;27;20562;-76
2022/01/04 00:03:47;;;;;;;23.52;9.02;;;;;;;8.06;100.00;100205.00;5153195;27;20498;-77
2022/01/04 00:06:16;;;;;;;19.60;8.90;;;;;;;8.04;100.00;100205.03;5151250;27;20082;-75
2022/01/04 00:08:44;;;;;;;24.45;9.95;;;;;;;8.03;100.00;100197.97;5155596;27;20042;-77
2022/01/04 00:11:19;;;;;;;22.98;8.85;;;;;;;8.00;100.00;100192.75;5155089;27;20099;-76
2022/01/04 00:13:47;;;;;;;20.10;9.30;;;;;;;8.01;100.00;100191.84;5153626;27;20057;-76
2022/01/04 00:16:15;;;;;;;19.70;9.65;;;;;;;8.05;100.00;100188.16;5151430;27;20503;-76
2022/01/04 00:18:46;;;;;;;25.63;9.27;;;;;;;8.01;100.00;100174.09;5155601;27;20046;-76
2022/01/04 00:21:14;;;;;;;26.83;9.57;;;;;;;7.97;100.00;100174.28;5153876;27;20050;-76
2022/01/04 00:23:43;;;;;;;20.63;10.35;;;;;;;7.97;100.00;100175.13;5154034;27;20166;-76
2022/01/04 00:26:11;;;;;;;21.85;9.10;;;;;;;7.96;100.00;100159.25;5155986;27;20685;-77
2022/01/04 00:28:40;;;;;;;25.55;10.07;;;;;;;8.00;100.00;100160.88;5157900;27;20133;-76
2022/01/04 00:31:08;;;;;;;22.42;9.48;;;;;;;7.99;100.00;100154.69;5161335;27;20092;-77
2022/01/04 00:33:37;;;;;;;21.55;8.95;;;;;;;7.99;100.00;100152.03;5154864;27;20050;-77
2022/01/04 00:36:05;;;;;;;20.10;9.63;;;;;;;7.95;100.00;100146.88;5159930;27;20384;-76
2022/01/04 00:38:33;;;;;;;21.50;9.73;;;;;;;7.99;100.00;100145.88;5156610;27;20047;-76
2022/01/04 00:41:02;;;;;;;18.95;9.73;;;;;;;7.95;100.00;100141.56;5159126;27;20445;-77
2022/01/04 00:43:33;;;;;;;22.02;9.38;;;;;;;7.94;100.00;100135.38;5156158;27;20133;-77
2022/01/04 00:46:02;;;;;;;21.27;9.27;;;;;;;7.93;100.00;100140.75;5159854;27;20042;-76
2022/01/04 00:49:12;;;;;;;21.98;9.90;;;;;;;7.94;100.00;100124.75;5157778;27;20632;-73
2022/01/04 00:51:43;;;;;;;22.88;10.25;;;;;;;7.95;100.00;100134.47;5158903;27;20046;-73
2022/01/04 00:54:11;;;;;;;24.75;10.48;;;;;;;7.92;100.00;100117.78;5155985;27;20053;-74
2022/01/04 00:56:41;;;;;;;28.15;10.88;;;;;;;7.91;100.00;100114.22;5158543;27;20046;-73
2022/01/04 00:59:08;;;;;;;25.98;11.07;;;;;;;7.91;100.00;100116.88;5157786;27;20050;-73
2022/01/04 01:01:39;;;;;;;23.60;10.70;;;;;;;7.94;100.00;100111.47;5155611;27;20046;-73
2022/01/04 01:04:08;;;;;;;22.92;11.95;;;;;;;7.90;100.00;100103.66;5156711;27;20045;-73
2022/01/04 01:06:36;;;;;;;20.80;10.30;;;;;;;7.91;100.00;100108.06;5157494;27;20050;-73
2022/01/04 01:09:04;;;;;;;21.23;9.63;;;;;;;7.86;100.00;100103.75;5158973;27;20481;-73
2022/01/04 01:11:32;;;;;;;18.02;9.43;;;;;;;7.89;100.00;100101.94;5157591;27;20042;-73
2022/01/04 01:14:01;;;;;;;24.90;11.15;;;;;;;7.86;100.00;100092.25;5158799;27;20058;-73
2022/01/04 01:16:29;;;;;;;21.05;11.23;;;;;;;7.87;100.00;100096.66;5157038;27;20057;-78
2022/01/04 01:18:59;;;;;;;21.88;10.98;;;;;;;7.83;100.00;100087.94;5158011;27;20058;-76
2022/01/04 01:21:27;;;;;;;23.55;11.57;;;;;;;7.88;100.00;100079.78;5157482;27;20211;-78
2022/01/04 01:23:55;;;;;;;24.48;11.65;;;;;;;7.86;100.00;100077.19;5155782;27;20103;-73
2022/01/04 01:26:24;;;;;;;23.55;10.70;;;;;;;7.84;100.00;100086.13;5159622;27;20545;-73
2022/01/04 01:28:52;;;;;;;20.40;10.38;;;;;;;7.88;100.00;100071.81;5155400;27;20338;-73
2022/01/04 01:31:20;;;;;;;26.05;12.27;;;;;;;7.86;100.00;100071.00;5158063;27;20054;-72
2022/01/04 01:33:49;;;;;;;22.98;10.98;;;;;;;7.88;100.00;100070.97;5156640;27;20053;-72
2022/01/04 01:36:18;;;;;;;24.35;11.43;;;;;;;7.85;100.00;100066.63;5158154;27;20518;-75
2022/01/04 01:38:49;;;;;;;29.58;12.35;;;;;;;7.83;100.00;100072.00;5156722;27;20050;-78
2022/01/04 01:41:25;;;;;;;21.23;10.65;;;;;;;7.83;100.00;100064.03;5157392;27;20373;-76
2022/01/04 01:43:53;;;;;;;21.52;12.90;;;;;;;7.84;100.00;100062.22;5156259;27;20181;-76
2022/01/04 01:46:21;;;;;;;28.13;12.60;;;;;;;7.84;100.00;100052.47;5157220;27;20589;-76
2022/01/04 01:48:49;;;;;;;25.35;12.63;;;;;;;7.78;100.00;100052.69;5155304;27;20053;-76
2022/01/04 01:51:20;;;;;;;31.10;13.80;;;;;;;7.76;100.00;100038.56;5158918;27;20333;-75
2022/01/04 01:53:48;;;;;;;25.60;12.57;;;;;;;7.77;100.00;100040.31;5157388;27;20145;-76
2022/01/04 01:56:16;;;;;;;26.58;11.88;;;;;;;7.78;100.00;100036.75;5155917;27;20494;-76
2022/01/04 01:58:44;;;;;;;23.02;12.57;;;;;;;7.77;100.00;100042.97;5159500;27;20046;-76
2022/01/04 02:01:17;;;;;;;26.05;10.82;;;;;;;7.76;100.00;100035.91;5155897;27;20050;-76
2022/01/04 02:03:46;;;;;;;24.17;12.32;;;;;;;7.71;100.00;100029.03;5154607;27;20053;-76
2022/01/04 02:06:15;;;;;;;23.92;11.40;;;;;;;7.73;100.00;100029.81;5158457;27;20118;-76
2022/01/04 02:08:44;;;;;;;21.83;11.80;;;;;;;7.71;100.00;100021.91;5156144;27;20050;-77
2022/01/04 02:11:12;;;;;;;23.02;11.40;;;;;;;7.70;100.00;100022.84;5156162;27;20115;-77
2022/01/04 02:14:04;;;;;;;23.75;11.05;;;;;;;7.75;100.00;100006.78;5155248;27;20053;-76
2022/01/04 02:16:33;;;;;;;28.48;11.45;;;;;;;7.73;100.00;100017.44;5155172;27;20133;-77
2022/01/04 02:19:02;;;;;;;21.98;12.45;;;;;;;7.70;100.00;100009.56;5156819;27;20050;-76
2022/01/04 02:21:32;;;;;;;25.15;11.85;;;;;;;7.71;100.00;100007.78;5155546;27;20584;-77
2022/01/04 02:24:01;;;;;;;25.48;10.95;;;;;;;7.70;100.00;99992.78;5156549;27;20073;-77
2022/01/04 02:26:31;;;;;;;33.53;10.77;;;;;;;7.69;100.00;99999.00;5155793;27;20054;-76
2022/01/04 02:29:01;;;;;;;23.98;10.65;;;;;;;7.71;100.00;99997.16;5155711;27;20513;-76
2022/01/04 02:31:32;;;;;;;29.17;11.93;;;;;;;7.71;100.00;99999.81;5157629;27;20051;-76
2022/01/04 02:34:10;;;;;;;24.30;11.07;;;;;;;7.74;100.00;99986.44;5154946;27;20129;-77
2022/01/04 02:37:04;;;;;;;22.10;10.13;;;;;;;7.75;100.00;99983.72;5159724;27;20073;-77
2022/01/04 02:39:36;;;;;;;26.58;11.32;;;;;;;7.74;100.00;99984.63;5154921;27;20086;-78
2022/01/04 02:42:05;;;;;;;20.40;9.35;;;;;;;7.70;100.00;99979.50;5157844;27;20050;-77
2022/01/04 02:44:33;;;;;;;23.40;10.77;;;;;;;7.67;100.00;99978.66;5154189;27;20073;-76
2022/01/04 02:47:01;;;;;;;24.60;10.55;;;;;;;7.72;100.00;99973.22;5156235;27;20553;-77
2022/01/04 02:49:31;;;;;;;24.88;10.75;;;;;;;7.73;100.00;99974.94;5156917;27;20049;-77
2022/01/04 02:51:59;;;;;;;26.33;11.13;;;;;;;7.73;100.00;99963.44;5157679;27;20046;-76
2022/01/04 02:54:29;;;;;;;21.65;10.20;;;;;;;7.66;100.00;99962.78;5154659;27;20387;-76
2022/01/04 02:56:58;;;;;;;22.45;11.13;;;;;;;7.69;100.00;99961.81;5156857;27;20061;-77
2022/01/04 02:59:27;;;;;;;23.67;10.80;;;;;;;7.71;100.00;99954.66;5159298;27;20372;-76
2022/01/04 03:01:54;;;;;;;26.10;12.00;;;;;;;7.67;100.00;99943.28;5153076;27;20042;-77
2022/01/04 03:04:24;;;;;;;30.45;12.40;;;;;;;7.64;100.00;99940.72;5155505;27;20375;-76
2022/01/04 03:06:52;;;;;;;25.50;11.38;;;;;;;7.65;100.00;99942.47;5155877;27;20354;-76
2022/01/04 03:09:20;;;;;;;31.88;12.85;;;;;;;7.61;100.00;99941.72;5156898;27;20482;-77
2022/01/04 03:11:49;;;;;;;28.60;12.57;;;;;;;7.62;100.00;99931.94;5153554;27;20125;-76
2022/01/04 03:14:20;;;;;;;26.05;10.93;;;;;;;7.65;100.00;99922.09;5155925;27;20470;-77
2022/01/04 03:16:48;;;;;;;27.55;12.25;;;;;;;7.64;100.00;99923.03;5153395;27;21962;-76
2022/01/04 03:19:23;;;;;;;28.42;11.25;;;;;;;7.61;100.00;99924.91;5156481;27;20052;-77
2022/01/04 03:21:53;;;;;;;29.00;12.15;;;;;;;7.57;100.00;99905.56;5154308;27;20130;-77
2022/01/04 03:24:21;;;;;;;26.00;12.20;;;;;;;7.58;100.00;99909.09;5154443;27;20046;-77
2022/01/04 03:26:50;;;;;;;26.58;12.80;;;;;;;7.57;100.00;99896.72;5155207;27;20057;-77
2022/01/04 03:29:21;;;;;;;27.48;11.95;;;;;;;7.60;100.00;99893.97;5156208;27;20090;-76
2022/01/04 03:31:49;;;;;;;28.67;12.18;;;;;;;7.60;100.00;99897.50;5156520;27;20078;-77
2022/01/04 03:34:18;;;;;;;26.92;11.07;;;;;;;7.61;100.00;99893.03;5150340;27;20110;-77
2022/01/04 03:36:46;;;;;;;28.73;12.38;;;;;;;7.56;100.00;99879.94;5154462;27;20487;-76
2022/01/04 03:39:15;;;;;;;26.88;11.95;;;;;;;7.56;100.00;99871.97;5152782;27;20415;-77
2022/01/04 03:41:46;;;;;;;26.83;12.70;;;;;;;7.58;100.00;99870.13;5156271;27;20326;-76
2022/01/04 03:44:19;;;;;;;28.55;12.95;;;;;;;7.55;100.00;99864.91;5154430;27;20150;-76
2022/01/04 03:46:50;;;;;;;27.17;13.13;;;;;;;7.59;100.00;99863.03;5155238;27;20050;-77
2022/01/04 03:49:18;;;;;;;27.17;12.43;;;;;;;7.55;100.00;99859.63;5154416;27;20058;-77
2022/01/04 03:51:46;;;;;;;31.17;12.57;;;;;;;7.58;100.00;99858.66;5147971;27;20141;-77
2022/01/04 03:54:14;;;;;;;23.55;12.90;;;;;;;7.58;100.00;99863.97;5154169;27;20081;-77
2022/01/04 03:57:07;;;;;;;30.92;14.35;;;;;;;7.55;100.00;99849.00;5154739;27;20057;-77
2022/01/04 04:00:00;;;;;;;32.80;12.90;;;;;;;7.59;100.00;99852.41;5156508;27;20162;-76
2022/01/04 04:02:28;;;;;;;27.75;12.82;;;;;;;7.59;100.00;99849.75;5150948;27;20052;-76
2022/01/04 04:04:58;;;;;;;25.25;12.82;;;;;;;7.56;100.00;99840.13;5154949;27;20055;-77
2022/01/04 04:07:25;;;;;;;31.38;12.77;;;;;;;7.54;100.00;99843.75;5151482;27;20054;-77
2022/01/04 04:09:53;;;;;;;26.33;12.05;;;;;;;7.55;100.00;99840.16;5154972;27;20079;-76
2022/01/04 04:12:23;;;;;;;27.70;13.93;;;;;;;7.54;100.00;99833.97;5152302;27;20490;-76
2022/01/04 04:14:51;;;;;;;29.45;15.20;;;;;;;7.47;100.00;99825.41;5153895;27;20061;-76
2022/01/04 04:17:21;;;;;;;31.35;14.90;;;;;;;7.46;100.00;99823.66;5153233;27;20498;-76
2022/01/04 04:19:48;;;;;;;32.25;13.88;;;;;;;7.50;100.00;99831.50;5155787;27;20053;-75
2022/01/04 04:22:21;;;;;;;31.02;13.45;;;;;;;7.52;100.00;99819.91;5152933;27;20505;-78
2022/01/04 04:24:50;;;;;;;31.67;14.90;;;;;;;7.47;100.00;99822.72;5152036;27;20115;-73
2022/01/04 04:27:18;;;;;;;31.08;14.93;;;;;;;7.47;100.00;99813.88;5153384;27;20102;-74
2022/01/04 04:29:46;;;;;;;31.70;13.57;;;;;;;7.46;100.00;99812.16;5153667;27;20047;-73
2022/01/04 04:32:14;;;;;;;27.75;15.88;;;;;;;7.44;100.00;99816.63;5153245;27;20126;-73
2022/01/04 04:34:43;;;;;;;28.50;14.30;;;;;;;7.44;100.00;99814.00;5151205;27;20129;-73
2022/01/04 04:37:11;;;;;;;27.75;14.55;;;;;;;7.45;100.00;99807.78;5154361;27;20050;-73
2022/01/04 04:39:39;;;;;;;30.92;14.88;;;;;;;7.47;100.00;99796.19;5153851;27;20523;-73
2022/01/04 04:42:07;;;;;;;28.83;13.93;;;;;;;7.45;100.00;99795.34;5153482;27;20161;-73
2022/01/04 04:44:39;;;;;;;29.35;15.13;;;;;;;7.43;100.00;99794.56;5150645;27;20498;-74
2022/01/04 04:47:07;;;;;;;31.55;14.15;;;;;;;7.42;100.00;99789.28;5153202;27;20053;-78
2022/01/04 04:49:35;;;;;;;29.38;14.35;;;;;;;7.40;100.00;99794.66;5153711;27;20485;-78
2022/01/04 04:52:10;;;;;;;31.42;13.27;;;;;;;7.42;100.00;99800.81;5153260;27;20139;-74
2022/01/04 04:54:40;;;;;;;24.02;12.95;;;;;;;7.44;100.00;99780.38;5136073;27;20164;-74
2022/01/04 04:57:10;;;;;;;24.08;13.43;;;;;;;7.40;100.00;99784.03;5152585;27;20054;-75
2022/01/04 04:59:39;;;;;;;31.35;15.13;;;;;;;7.39;100.00;99787.63;5152113;27;20046;-73
2022/01/04 05:02:12;;;;;;;28.45;14.07;;;;;;;7.40;100.00;99784.03;5151702;27;20046;-73
2022/01/04 05:04:40;;;;;;;26.27;14.07;;;;;;;7.41;100.00;99776.97;5154743;27;20051;-73
2022/01/04 05:07:11;;;;;;;31.10;15.02;;;;;;;7.38;100.00;99775.28;5153809;27;20341;-74
2022/01/04 05:09:39;;;;;;;29.63;14.88;;;;;;;7.39;100.00;99774.38;5154686;27;20043;-74
2022/01/04 05:12:09;;;;;;;27.42;14.43;;;;;;;7.39;100.00;99774.38;5156226;27;20042;-73
2022/01/04 05:17:55;;;;;;;28.88;14.60;;;;;;;7.36;100.00;99777.13;5154532;27;20153;-73
2022/01/04 05:23:44;;;;;;;27.60;13.95;;;;;;;7.31;100.00;99771.13;5154890;27;20098;-78
2022/01/04 05:26:13;;;;;;;26.77;14.32;;;;;;;7.24;100.00;99769.59;5155986;27;20454;-78
2022/01/04 05:28:45;;;;;;;29.90;13.18;;;;;;;7.23;100.00;99759.91;5156345;27;20628;-79
2022/01/04 05:31:13;;;;;;;26.17;12.98;;;;;;;7.24;100.00;99759.00;5158951;27;20057;-80
2022/01/04 05:33:41;;;;;;;29.40;12.82;;;;;;;7.20;100.00;99755.59;5157018;27;20189;-80
2022/01/04 05:36:09;;;;;;;26.50;13.00;;;;;;;7.20;100.00;99754.69;5157376;27;20054;-77
2022/01/04 05:38:38;;;;;;;27.48;12.32;;;;;;;7.17;100.00;99749.50;5157654;27;20157;-79
2022/01/04 05:41:07;;;;;;;24.45;12.32;;;;;;;7.20;100.00;99750.28;5156530;27;20503;-78
2022/01/04 05:43:35;;;;;;;25.05;12.30;;;;;;;7.17;100.00;99755.69;5157078;27;20133;-77
2022/01/04 05:46:03;;;;;;;25.48;12.00;;;;;;;7.14;100.00;99750.47;5158286;27;20042;-80
2022/01/04 05:48:31;;;;;;;23.15;11.68;;;;;;;7.14;100.00;99750.47;5158825;27;20094;-78
2022/01/04 05:50:59;;;;;;;24.17;11.98;;;;;;;7.14;100.00;99749.63;5156671;27;20149;-78
2022/01/04 05:53:33;;;;;;;26.08;11.88;;;;;;;7.16;100.00;99758.38;5157028;27;20054;-79
2022/01/04 05:56:02;;;;;;;24.77;12.52;;;;;;;7.13;100.00;99751.38;5155556;27;20054;-79
2022/01/04 05:58:31;;;;;;;23.50;12.02;;;;;;;7.15;100.00;99740.72;5157034;27;20035;-79
2022/01/04 06:00:59;;;;;;;25.55;13.20;;;;;;;7.14;100.00;99723.09;5159073;27;20047;-79
2022/01/04 06:03:32;;;;;;;31.98;14.05;;;;;;;7.13;100.00;99719.56;5156966;27;20077;-79
2022/01/04 06:06:00;;;;;;;30.83;14.65;;;;;;;7.16;100.00;99732.72;5157686;27;20543;-79
2022/01/04 06:08:35;;;;;;;30.77;15.05;;;;;;;7.15;100.00;99722.16;5157179;27;20100;-78
2022/01/04 06:11:03;;;;;;;31.20;14.95;;;;;;;7.17;100.00;99726.50;5158157;27;20057;-79
2022/01/04 06:16:18;;;;;;;33.33;16.33;;;;;;;7.16;100.00;99716.78;5157106;27;20125;-79
2022/01/04 06:18:46;;;;;;;33.80;15.35;;;;;;;7.14;100.00;99716.00;5153513;27;20056;-79
2022/01/04 06:21:14;;;;;;;31.02;15.27;;;;;;;7.15;100.00;99722.16;5157473;27;20066;-79
2022/01/04 06:23:42;;;;;;;31.80;14.85;;;;;;;7.12;100.00;99725.78;5156192;27;23193;-79
2022/01/04 06:26:10;;;;;;;34.42;14.65;;;;;;;7.07;100.00;99723.28;5156154;27;20034;-78
2022/01/04 06:28:39;;;;;;;28.30;14.93;;;;;;;7.11;100.00;99718.75;5155233;27;20541;-78
2022/01/04 06:31:07;;;;;;;35.58;15.77;;;;;;;7.08;100.00;99705.59;5157347;27;20066;-78
2022/01/04 06:33:35;;;;;;;30.85;14.77;;;;;;;7.07;100.00;99688.81;5155083;27;20046;-78
2022/01/04 06:36:04;;;;;;;30.08;14.05;;;;;;;7.15;100.00;99691.22;5156135;27;20042;-78
2022/01/04 06:38:32;;;;;;;32.83;14.30;;;;;;;7.13;100.00;99690.38;5156218;27;20050;-79
2022/01/04 06:40:59;;;;;;;29.30;14.38;;;;;;;7.15;100.00;99671.75;5154661;27;20512;-78
2022/01/04 06:43:27;;;;;;;32.28;13.68;;;;;;;7.12;100.00;99683.34;5159767;27;20284;-79
2022/01/04 06:45:56;;;;;;;32.28;13.55;;;;;;;7.15;100.00;99677.06;5156462;27;20070;-78
2022/01/04 06:48:24;;;;;;;29.40;13.18;;;;;;;7.19;100.00;99674.25;5154640;27;20133;-78
2022/01/04 06:50:52;;;;;;;35.63;15.20;;;;;;;7.16;100.00;99681.44;5154780;27;20069;-78
2022/01/04 06:53:20;;;;;;;29.13;13.25;;;;;;;7.16;100.00;99690.25;5153090;27;20078;-78
2022/01/04 06:55:50;;;;;;;37.03;15.10;;;;;;;7.18;100.00;99685.75;5158479;27;20089;-78
2022/01/04 06:58:18;;;;;;;31.20;12.93;;;;;;;7.20;100.00;99680.41;5153204;27;20564;-79
2022/01/04 07:00:47;;;;;;;28.77;12.77;;;;;;;7.18;100.00;99676.94;5157664;27;20046;-79
2022/01/04 07:03:16;;;;;;;31.48;13.88;;;;;;;7.16;100.00;99670.84;5155922;27;20057;-79
2022/01/04 07:05:44;;;;;;;32.15;13.95;;;;;;;7.17;100.00;99659.28;5156929;27;20398;-78
2022/01/04 07:08:12;;;;;;;30.63;13.77;;;;;;;7.18;100.00;99658.38;5155241;27;20082;-78
2022/01/04 07:10:40;;;;;;;38.35;15.80;;;;;;;7.17;100.00;99651.31;5155472;27;20132;-78
2022/01/04 07:13:07;;;;;;;37.17;15.98;;;;;;;7.22;100.00;99644.06;5153199;27;20540;-78
2022/01/04 07:15:36;;;;;;;38.15;14.88;;;;;;;7.18;100.00;99651.28;5153371;27;20079;-77
2022/01/04 07:18:04;;;;;;;38.38;16.00;;;;;;;7.17;100.00;99651.31;5157625;27;20562;-73
2022/01/04 07:20:33;;;;;;;35.03;15.50;;;;;;;7.15;100.00;99653.19;5154601;27;20434;-78
2022/01/04 07:23:01;;;;;;;36.15;15.00;;;;;;;7.21;100.00;99669.75;5155799;27;20057;-78
2022/01/04 07:25:29;;;;;;;33.05;14.68;;;;;;;7.16;100.00;99665.53;5152517;27;20097;-77
2022/01/04 07:27:57;;;;;;;35.42;15.60;;;;;;;7.13;100.00;99653.22;5154297;27;20046;-74
2022/01/04 07:30:26;;;;;;;36.05;14.75;;;;;;;7.16;100.00;99652.25;5154302;27;20054;-74
2022/01/04 07:32:54;;;;;;;37.05;16.17;;;;;;;7.10;100.00;99645.41;5153695;27;20049;-74
2022/01/04 07:35:22;;;;;;;37.92;16.65;;;;;;;7.08;100.00;99647.22;5152363;27;20050;-71
2022/01/04 07:37:52;;;;;;;38.05;16.42;;;;;;;7.10;100.00;99653.38;5156742;27;20129;-70
2022/01/04 07:40:21;;;;;;;37.60;15.85;;;;;;;7.08;100.00;99652.53;5149934;27;20137;-68
2022/01/04 07:42:49;;;;;;;44.30;17.05;;;;;;;7.11;100.00;99660.38;5152836;27;20046;-69
2022/01/04 07:45:17;;;;;;;37.00;16.80;;;;;;;7.08;100.00;99671.09;5153593;27;20146;-69
2022/01/04 07:47:45;;;;;;;35.30;15.15;;;;;;;7.07;100.00;99653.47;5154027;27;20042;-70
2022/01/04 07:50:13;;;;;;;33.88;15.93;;;;;;;7.03;100.00;99650.06;5155585;27;20081;-69
2022/01/04 07:52:41;;;;;;;39.75;17.38;;;;;;;7.01;100.00;99657.19;5150632;27;20058;-69
2022/01/04 07:55:10;;;;;;;37.90;17.80;;;;;;;7.08;100.00;99658.72;5154216;27;20114;-69
2022/01/04 07:57:40;;;;;;;40.50;17.75;;;;;;;7.07;100.00;99680.84;5153904;27;20096;-69
2022/01/04 08:00:09;;;;;;;42.05;18.58;;;;;;;7.03;100.00;99681.00;5154597;27;20398;-74
2022/01/04 08:02:38;;;;;;;43.17;15.55;;;;;;;7.03;100.00;99683.66;5154228;27;20417;-74
2022/01/04 08:05:07;;;;;;;27.13;12.55;;;;;;;7.03;100.00;99670.41;5153027;27;20052;-74
2022/01/04 08:07:34;;;;;;;32.60;13.07;;;;;;;7.00;100.00;99675.81;5156802;27;20042;-75
2022/01/04 08:10:03;;;;;;;33.38;13.32;;;;;;;7.06;100.00;99683.56;5153899;27;20081;-75
2022/01/04 08:12:33;;;;;;;28.98;13.18;;;;;;;6.99;100.00;99672.31;5155656;27;20050;-74
2022/01/04 08:15:02;;;;;;;45.30;15.98;;;;;;;7.01;100.00;99670.47;5156066;27;20065;-75
2022/01/04 08:17:30;;;;;;;33.08;13.27;;;;;;;6.98;100.00;99681.19;5156219;27;20435;-73
2022/01/04 08:19:57;;;;;;;36.95;15.93;;;;;;;7.00;100.00;99683.78;5154512;27;20074;-76
2022/01/04 08:22:31;;;;;;;35.28;13.60;;;;;;;6.98;100.00;99678.53;5155657;27;20491;-75
2022/01/04 08:25:02;;;;;;;32.85;13.43;;;;;;;6.97;100.00;99691.84;5155359;27;20050;-74
2022/01/04 08:27:30;;;;;;;32.22;13.75;;;;;;;7.00;100.00;99697.91;5152236;27;20319;-75
2022/01/04 08:30:00;;;;;;;39.65;13.25;;;;;;;6.96;100.00;99696.28;5153863;27;20062;-76
2022/01/04 08:32:28;;;;;;;32.35;14.85;;;;;;;6.93;100.00;99709.66;5153935;27;20067;-76
2022/01/04 08:34:56;;;;;;;33.13;13.90;;;;;;;6.95;100.00;99705.16;5156007;27;20099;-74
2022/01/04 08:37:24;;;;;;;35.33;12.60;;;;;;;6.95;100.00;99707.81;5152941;27;20043;-75
2022/01/04 08:39:52;;;;;;;31.75;12.52;;;;;;;6.94;100.00;99713.19;5154709;27;20306;-75
2022/01/04 08:42:22;;;;;;;31.13;12.07;;;;;;;6.94;100.00;99715.84;5152806;27;20054;-75
2022/01/04 08:44:50;;;;;;;18.75;9.23;;;;;;;6.93;100.00;99730.88;5155071;27;20084;-73
2022/01/04 08:47:22;;;;;;;20.70;9.18;;;;;;;6.95;100.00;99728.16;5160090;27;20046;-76
2022/01/04 08:49:50;;;;;;;21.90;8.10;;;;;;;6.95;100.00;99722.84;5156538;27;20121;-76
2022/01/04 08:52:18;;;;;;;17.23;6.80;;;;;;;6.93;100.00;99720.28;5153474;27;20050;-78
2022/01/04 08:54:47;;;;;;;15.18;5.85;;;;;;;6.91;100.00;99719.44;5156473;27;20130;-77
2022/01/04 08:57:15;;;;;;;13.38;6.20;;;;;;;6.93;100.00;99712.31;5156626;27;20057;-77
2022/01/04 08:59:42;;;;;;;12.63;5.80;;;;;;;6.91;100.00;99714.13;5156339;27;20478;-76
2022/01/04 09:02:10;;;;;;;12.70;5.43;;;;;;;6.91;100.00;99711.47;5155928;27;20052;-76
2022/01/04 09:04:39;;;;;;;10.63;4.35;;;;;;;6.90;100.00;99712.44;5159085;27;20046;-77
2022/01/04 09:07:09;;;;;;;12.30;5.07;;;;;;;6.91;100.00;99703.53;5158207;27;20054;-78
2022/01/04 09:09:40;;;;;;;14.55;4.63;;;;;;;6.92;100.00;99697.31;5157684;27;20573;-81
2022/01/04 09:12:41;;;;;;;9.63;3.83;;;;;;;6.97;100.00;99705.97;5158101;27;20801;-77
2022/01/04 09:15:30;;;;;;;12.63;3.92;;;;;;;6.92;100.00;99710.56;5158063;27;20049;-81
2022/01/04 09:20:47;;;;;;;9.00;4.10;;;;;;;6.91;100.00;99709.72;5155374;27;20052;-79
2022/01/04 09:23:18;;;;;;;10.27;3.92;;;;;;;6.91;100.00;99708.84;5156155;27;20046;-80
2022/01/04 09:25:46;;;;;;;9.73;4.10;;;;;;;6.94;100.00;99715.84;5158910;27;20038;-79
2022/01/04 09:28:16;;;;;;;10.02;3.88;;;;;;;6.94;100.00;99713.19;5155772;27;20091;-80
2022/01/04 09:30:48;;;;;;;11.88;3.70;;;;;;;6.96;100.00;99703.38;5156791;27;20490;-80
2022/01/04 09:33:16;;;;;;;12.30;3.55;;;;;;;6.98;100.00;99710.38;5155230;27;20134;-81
2022/01/04 09:35:44;;;;;;;12.05;4.13;;;;;;;7.00;100.00;99715.59;5157024;27;20117;-80
2022/01/04 09:38:14;;;;;;;9.05;3.30;;;;;;;7.02;100.00;99708.47;5159698;27;20050;-80
2022/01/04 09:40:42;;;;;;;12.43;4.25;;;;;;;7.04;100.00;99711.94;5157055;27;20042;-82
2022/01/04 09:43:10;;;;;;;9.57;3.92;;;;;;;7.04;100.00;99720.75;5161263;27;20058;-80
2022/01/04 09:45:38;;;;;;;10.88;3.63;;;;;;;7.07;100.00;99722.44;5156157;27;20089;-81
2022/01/04 09:48:06;;;;;;;7.30;3.50;;;;;;;7.11;100.00;99721.41;5158612;27;20042;-80
2022/01/04 09:51:00;;;;;;;12.00;4.07;;;;;;;7.14;100.00;99725.75;5156534;27;20216;-79
2022/01/04 09:53:29;;;;;;;14.10;4.00;;;;;;;7.14;100.00;99725.75;5154626;27;20053;-76
2022/01/04 09:55:58;;;;;;;11.73;4.10;;;;;;;7.18;100.00;99716.75;5153277;27;20583;-77
2022/01/04 09:58:27;;;;;;;11.32;3.80;;;;;;;7.16;100.00;99718.59;5158387;27;20549;-77
2022/01/04 10:00:55;;;;;;;15.93;4.53;;;;;;;7.17;100.00;99715.00;5150962;27;20061;-76
2022/01/04 10:03:29;;;;;;;19.95;4.60;;;;;;;7.17;100.00;99721.19;5155736;27;20270;-76
2022/01/04 10:06:03;;;;;;;20.38;4.93;;;;;;;7.26;100.00;99712.88;5155328;27;20043;-75
2022/01/04 10:08:33;;;;;;;;;;;;;;;7.20;100.00;99720.19;5157266;27;20042;-74
2022/01/04 10:11:06;;;;;;;17.42;4.60;;;;;;;7.19;100.00;99716.69;5157854;27;20452;-74
2022/01/04 10:13:34;;;;;;;16.30;4.97;;;;;;;7.17;100.00;99717.66;5152984;27;20338;-75
2022/01/04 10:16:14;;;;;;;13.10;4.78;;;;;;;7.18;100.00;99714.09;5156127;27;20110;-74
2022/01/04 10:18:42;;;;;;;18.58;4.72;;;;;;;7.20;100.00;99712.25;5150917;27;20061;-75
2022/01/04 10:21:15;;;;;;;17.63;5.25;;;;;;;7.22;100.00;99718.34;5158282;27;20424;-75
2022/01/04 10:23:50;;;;;;;18.17;4.97;;;;;;;7.22;100.00;99713.03;5152768;27;20526;-75
2022/01/04 10:26:28;;;;;;;18.33;5.03;;;;;;;7.22;100.00;99705.97;5156869;27;20129;-75
2022/01/04 10:28:56;;;;;;;17.35;5.05;;;;;;;7.21;100.00;99695.41;5154194;27;20561;-75
2022/01/04 10:31:28;;;;;;;15.23;4.72;;;;;;;7.19;100.00;99698.13;5155918;27;20039;-75
2022/01/04 10:33:56;;;;;;;16.23;5.63;;;;;;;7.22;100.00;99699.78;5156262;27;20046;-75
2022/01/04 10:36:25;;;;;;;27.02;6.10;;;;;;;7.17;100.00;99699.97;5154528;27;20242;-74
2022/01/04 10:38:54;;;;;;;13.25;4.90;;;;;;;7.19;100.00;99700.78;5157693;27;20311;-75
2022/01/04 10:41:25;;;;;;;17.67;5.55;;;;;;;7.23;100.00;99702.38;5152974;27;20042;-74
2022/01/04 10:43:58;;;;;;;17.35;4.75;;;;;;;7.27;100.00;99697.81;5155844;27;20042;-74
2022/01/04 10:46:35;;;;;;;15.18;4.85;;;;;;;7.24;100.00;99703.28;5152860;27;20470;-75
2022/01/04 10:49:15;;;;;;;16.48;5.18;;;;;;;7.22;100.00;99702.44;5156865;27;20046;-77
2022/01/04 10:51:43;;;;;;;14.20;4.15;;;;;;;7.07;100.00;99702.06;5156468;27;20196;-78
2022/01/04 10:54:18;;;;;;;9.60;3.03;;;;;;;6.95;100.00;99713.13;5155643;27;20095;-77
2022/01/04 10:56:46;;;;;;;10.13;2.65;;;;;;;6.87;100.00;99715.19;5153230;27;20091;-79
2022/01/04 10:59:15;;;;;;;12.43;2.38;;;;;;;6.76;100.00;99718.22;5156932;27;20088;-78
2022/01/04 11:01:45;;;;;;;6.82;1.90;;;;;;;6.72;100.00;99728.06;5156655;27;20074;-78
2022/01/04 11:04:15;;;;;;;8.00;2.13;;;;;;;6.66;100.00;99725.59;5153381;27;20106;-78
2022/01/04 11:06:43;;;;;;;12.32;2.78;;;;;;;6.62;100.00;99731.91;5157139;27;20499;-77
2022/01/04 11:09:13;;;;;;;5.45;2.13;;;;;;;6.60;100.00;99733.75;5156023;27;20168;-77
2022/01/04 11:12:06;;;;;;;11.38;2.20;;;;;;;6.65;100.00;99726.50;5155067;27;20219;-78
2022/01/04 11:14:59;;;;;;;6.55;2.13;;;;;;;6.59;100.00;99732.03;5154095;27;20110;-77
2022/01/04 11:17:27;;;;;;;6.53;1.92;;;;;;;6.58;100.00;99737.38;5155131;27;20497;-77
2022/01/04 11:19:56;;;;;;;10.20;2.17;;;;;;;6.51;100.00;99749.97;5155565;27;20042;-77
2022/01/04 11:22:24;;;;;;;4.85;1.60;;;;;;;6.48;100.00;99747.41;5154870;27;20050;-78
2022/01/04 11:24:53;;;;;;;6.20;1.95;;;;;;;6.51;100.00;99752.63;5156068;27;20057;-77
2022/01/04 11:27:21;;;;;;;6.00;2.03;;;;;;;6.53;100.00;99751.63;5154682;27;20102;-76
2022/01/04 11:29:52;;;;;;;6.32;2.15;;;;;;;6.46;100.00;99750.09;5156992;27;20146;-78
2022/01/04 11:32:22;;;;;;;8.48;2.15;;;;;;;6.41;100.00;99761.78;5157110;27;20046;-77
2022/01/04 11:35:04;;;;;;;6.10;1.55;;;;;;;6.45;100.00;99760.75;5157511;27;20050;-77
2022/01/04 11:37:59;;;;;;;5.60;1.67;;;;;;;6.42;100.00;99772.34;5155298;27;20268;-77
2022/01/04 11:40:32;;;;;;;5.28;1.80;;;;;;;6.37;100.00;99766.31;5156801;27;20140;-77
2022/01/04 11:42:59;;;;;;;11.60;2.03;;;;;;;6.48;100.00;99771.25;5153397;27;20057;-78
2022/01/04 11:45:40;;;;;;;7.20;1.88;;;;;;;6.24;100.00;99773.78;5157795;27;20050;-76